sensor_id;sensor_type;location;lat;lon;timestamp;pressure;altitude;pressure_sealevel;temperature;humidity
76297;BME280;65104;52.994;6.552;2023-04-25T00:00:41;100852.97;;;5.93;97.06
76297;BME280;65104;52.994;6.552;2023-04-25T00:03:06;100857.59;;;6.03;97.43
76297;BME280;65104;52.994;6.552;2023-04-25T00:05:34;100858.41;;;6.02;97.90
76297;BME280;65104;52.994;6.552;2023-04-25T00:07:59;100855.06;;;6.03;97.63
76297;BME280;65104;52.994;6.552;2023-04-25T00:10:25;100850.69;;;6.00;97.77
76297;BME280;65104;52.994;6.552;2023-04-25T00:12:50;100866.19;;;6.05;96.79
76297;BME280;65104;52.994;6.552;2023-04-25T00:15:16;100858.31;;;5.99;98.40
76297;BME280;65104;52.994;6.552;2023-04-25T00:17:42;100862.53;;;5.98;98.52
76297;BME280;65104;52.994;6.552;2023-04-25T00:20:08;100861.75;;;6.01;99.04
76297;BME280;65104;52.994;6.552;2023-04-25T00:22:35;100870.47;;;6.06;99.06
76297;BME280;65104;52.994;6.552;2023-04-25T00:25:03;100874.78;;;6.09;98.94
76297;BME280;65104;52.994;6.552;2023-04-25T00:27:29;100879.88;;;6.09;98.46
76297;BME280;65104;52.994;6.552;2023-04-25T00:29:54;100883.75;;;5.97;97.81
76297;BME280;65104;52.994;6.552;2023-04-25T00:32:20;100883.16;;;5.84;97.52
76297;BME280;65104;52.994;6.552;2023-04-25T00:34:45;100888.72;;;5.74;99.34
76297;BME280;65104;52.994;6.552;2023-04-25T00:37:11;100879.00;;;5.63;100.00
76297;BME280;65104;52.994;6.552;2023-04-25T00:39:36;100881.28;;;5.57;100.00
76297;BME280;65104;52.994;6.552;2023-04-25T00:42:02;100881.06;;;5.51;100.00
76297;BME280;65104;52.994;6.552;2023-04-25T00:44:29;100878.66;;;5.54;100.00
76297;BME280;65104;52.994;6.552;2023-04-25T00:46:55;100883.84;;;5.57;100.00
76297;BME280;65104;52.994;6.552;2023-04-25T00:49:21;100880.69;;;5.42;99.52
76297;BME280;65104;52.994;6.552;2023-04-25T00:51:46;100887.63;;;5.46;98.46
76297;BME280;65104;52.994;6.552;2023-04-25T00:54:12;100879.13;;;5.46;99.91
76297;BME280;65104;52.994;6.552;2023-04-25T00:56:39;100880.13;;;5.49;99.38
76297;BME280;65104;52.994;6.552;2023-04-25T00:59:05;100873.88;;;5.41;100.00
76297;BME280;65104;52.994;6.552;2023-04-25T01:01:31;100872.69;;;5.33;100.00
76297;BME280;65104;52.994;6.552;2023-04-25T01:03:58;100882.75;;;5.30;100.00
76297;BME280;65104;52.994;6.552;2023-04-25T01:06:23;100884.47;;;5.31;100.00
76297;BME280;65104;52.994;6.552;2023-04-25T01:08:49;100885.28;;;5.30;100.00
76297;BME280;65104;52.994;6.552;2023-04-25T01:11:14;100884.56;;;5.33;99.32
76297;BME280;65104;52.994;6.552;2023-04-25T01:13:40;100875.53;;;5.20;99.89
76297;BME280;65104;52.994;6.552;2023-04-25T01:16:06;100882.25;;;5.18;98.36
76297;BME280;65104;52.994;6.552;2023-04-25T01:18:31;100884.59;;;5.13;99.15
76297;BME280;65104;52.994;6.552;2023-04-25T01:21:06;100885.16;;;5.06;99.92
76297;BME280;65104;52.994;6.552;2023-04-25T01:23:32;100884.84;;;4.99;99.08
76297;BME280;65104;52.994;6.552;2023-04-25T01:25:58;100881.38;;;4.97;98.35
76297;BME280;65104;52.994;6.552;2023-04-25T01:28:24;100891.53;;;4.97;97.83
76297;BME280;65104;52.994;6.552;2023-04-25T01:30:50;100886.53;;;4.98;98.50
76297;BME280;65104;52.994;6.552;2023-04-25T01:33:17;100888.06;;;4.95;98.22
76297;BME280;65104;52.994;6.552;2023-04-25T01:35:42;100886.47;;;4.97;97.79
76297;BME280;65104;52.994;6.552;2023-04-25T01:38:08;100885.72;;;4.99;96.69
76297;BME280;65104;52.994;6.552;2023-04-25T01:40:33;100891.78;;;5.03;97.16
76297;BME280;65104;52.994;6.552;2023-04-25T01:42:59;100898.56;;;5.02;97.17
76297;BME280;65104;52.994;6.552;2023-04-25T01:45:25;100895.47;;;5.09;97.48
76297;BME280;65104;52.994;6.552;2023-04-25T01:47:50;100899.69;;;5.09;96.36
76297;BME280;65104;52.994;6.552;2023-04-25T01:50:17;100905.59;;;5.08;97.31
76297;BME280;65104;52.994;6.552;2023-04-25T01:52:43;100904.00;;;5.10;96.20
76297;BME280;65104;52.994;6.552;2023-04-25T01:55:09;100914.16;;;5.10;95.63
76297;BME280;65104;52.994;6.552;2023-04-25T01:57:34;100909.06;;;5.10;96.03
76297;BME280;65104;52.994;6.552;2023-04-25T02:00:02;100916.50;;;5.05;97.40
76297;BME280;65104;52.994;6.552;2023-04-25T02:02:28;100914.97;;;5.09;97.85
76297;BME280;65104;52.994;6.552;2023-04-25T02:04:53;100916.72;;;5.10;97.21
76297;BME280;65104;52.994;6.552;2023-04-25T02:07:21;100923.66;;;5.14;95.86
76297;BME280;65104;52.994;6.552;2023-04-25T02:09:47;100916.41;;;5.23;94.96
76297;BME280;65104;52.994;6.552;2023-04-25T02:12:12;100917.19;;;5.22;93.96
76297;BME280;65104;52.994;6.552;2023-04-25T02:14:38;100916.97;;;5.16;95.01
76297;BME280;65104;52.994;6.552;2023-04-25T02:17:03;100924.66;;;5.17;93.64
76297;BME280;65104;52.994;6.552;2023-04-25T02:19:29;100924.47;;;5.13;93.22
76297;BME280;65104;52.994;6.552;2023-04-25T02:21:54;100929.63;;;5.14;94.29
76297;BME280;65104;52.994;6.552;2023-04-25T02:24:20;100926.19;;;5.14;95.50
76297;BME280;65104;52.994;6.552;2023-04-25T02:26:45;100924.47;;;5.13;96.50
76297;BME280;65104;52.994;6.552;2023-04-25T02:29:12;100924.47;;;5.13;94.49
76297;BME280;65104;52.994;6.552;2023-04-25T02:31:37;100927.94;;;5.15;95.46
76297;BME280;65104;52.994;6.552;2023-04-25T02:34:02;100921.97;;;5.14;96.07
76297;BME280;65104;52.994;6.552;2023-04-25T02:36:28;100929.69;;;5.16;95.56
76297;BME280;65104;52.994;6.552;2023-04-25T02:38:55;100932.41;;;5.20;93.39
76297;BME280;65104;52.994;6.552;2023-04-25T02:41:20;100931.53;;;5.20;94.55
76297;BME280;65104;52.994;6.552;2023-04-25T02:43:46;100933.69;;;5.11;93.82
76297;BME280;65104;52.994;6.552;2023-04-25T02:46:11;100936.38;;;5.14;95.60
76297;BME280;65104;52.994;6.552;2023-04-25T02:48:36;100938.78;;;5.11;95.04
76297;BME280;65104;52.994;6.552;2023-04-25T02:51:02;100930.63;;;5.18;94.46
76297;BME280;65104;52.994;6.552;2023-04-25T02:53:27;100934.53;;;5.10;96.37
76297;BME280;65104;52.994;6.552;2023-04-25T02:55:53;100936.25;;;5.11;96.04
76297;BME280;65104;52.994;6.552;2023-04-25T02:58:18;100936.38;;;5.14;93.82
76297;BME280;65104;52.994;6.552;2023-04-25T03:00:43;100931.44;;;5.17;93.25
76297;BME280;65104;52.994;6.552;2023-04-25T03:03:09;100933.97;;;5.17;92.08
76297;BME280;65104;52.994;6.552;2023-04-25T03:05:34;100941.72;;;5.20;90.88
76297;BME280;65104;52.994;6.552;2023-04-25T03:07:59;100942.59;;;5.20;90.14
76297;BME280;65104;52.994;6.552;2023-04-25T03:10:25;100940.75;;;5.16;89.39
76297;BME280;65104;52.994;6.552;2023-04-25T03:12:51;100943.34;;;5.18;90.58
76297;BME280;65104;52.994;6.552;2023-04-25T03:15:16;100947.44;;;5.14;89.58
76297;BME280;65104;52.994;6.552;2023-04-25T03:17:41;100954.28;;;5.15;90.30
76297;BME280;65104;52.994;6.552;2023-04-25T03:20:07;100952.47;;;5.13;91.29
76297;BME280;65104;52.994;6.552;2023-04-25T03:22:33;100958.50;;;5.15;89.93
76297;BME280;65104;52.994;6.552;2023-04-25T03:24:58;100952.47;;;5.13;89.82
76297;BME280;65104;52.994;6.552;2023-04-25T03:27:24;100955.56;;;5.06;88.88
76297;BME280;65104;52.994;6.552;2023-04-25T03:29:49;100959.69;;;5.04;89.30
76297;BME280;65104;52.994;6.552;2023-04-25T03:32:15;100960.97;;;4.94;89.31
76297;BME280;65104;52.994;6.552;2023-04-25T03:34:40;100965.09;;;4.90;89.04
76297;BME280;65104;52.994;6.552;2023-04-25T03:37:06;100962.13;;;4.81;90.22
76297;BME280;65104;52.994;6.552;2023-04-25T03:39:31;100958.66;;;4.79;88.88
76297;BME280;65104;52.994;6.552;2023-04-25T03:41:57;100967.97;;;4.79;88.69
76297;BME280;65104;52.994;6.552;2023-04-25T03:44:22;100964.53;;;4.78;88.85
76297;BME280;65104;52.994;6.552;2023-04-25T03:46:49;100973.44;;;4.69;88.42
76297;BME280;65104;52.994;6.552;2023-04-25T03:49:14;100975.78;;;4.64;87.85
76297;BME280;65104;52.994;6.552;2023-04-25T03:51:40;100968.88;;;4.62;86.90
76297;BME280;65104;52.994;6.552;2023-04-25T03:54:05;100972.50;;;4.67;87.63
76297;BME280;65104;52.994;6.552;2023-04-25T03:56:30;100977.47;;;4.64;85.90
76297;BME280;65104;52.994;6.552;2023-04-25T03:58:56;100971.38;;;4.60;86.48
76297;BME280;65104;52.994;6.552;2023-04-25T04:01:21;100974.44;;;4.53;85.68
76297;BME280;65104;52.994;6.552;2023-04-25T04:03:46;100967.34;;;4.46;85.40
76297;BME280;65104;52.994;6.552;2023-04-25T04:06:12;100973.50;;;4.51;87.14
76297;BME280;65104;52.994;6.552;2023-04-25T04:08:38;100983.75;;;4.52;85.27
76297;BME280;65104;52.994;6.552;2023-04-25T04:11:04;100991.84;;;4.63;84.46
76297;BME280;65104;52.994;6.552;2023-04-25T04:13:30;100993.69;;;4.48;85.21
76297;BME280;65104;52.994;6.552;2023-04-25T04:15:55;101006.06;;;4.40;84.06
76297;BME280;65104;52.994;6.552;2023-04-25T04:18:21;101001.72;;;4.38;85.24
76297;BME280;65104;52.994;6.552;2023-04-25T04:20:46;101012.25;;;4.28;86.19
76297;BME280;65104;52.994;6.552;2023-04-25T04:23:12;101020.16;;;4.34;86.03
76297;BME280;65104;52.994;6.552;2023-04-25T04:25:37;101021.19;;;4.37;85.02
76297;BME280;65104;52.994;6.552;2023-04-25T04:28:03;101019.38;;;4.35;85.91
76297;BME280;65104;52.994;6.552;2023-04-25T04:30:28;101029.72;;;4.39;86.24
76297;BME280;65104;52.994;6.552;2023-04-25T04:32:58;101029.53;;;4.35;87.00
76297;BME280;65104;52.994;6.552;2023-04-25T04:35:26;101025.75;;;4.27;86.14
76297;BME280;65104;52.994;6.552;2023-04-25T04:37:51;101026.19;;;4.36;87.21
76297;BME280;65104;52.994;6.552;2023-04-25T04:40:17;101028.84;;;4.39;86.61
76297;BME280;65104;52.994;6.552;2023-04-25T04:42:43;101027.88;;;4.35;85.77
76297;BME280;65104;52.994;6.552;2023-04-25T04:45:12;101027.25;;;4.41;87.14
76297;BME280;65104;52.994;6.552;2023-04-25T04:47:38;101024.59;;;4.38;87.74
76297;BME280;65104;52.994;6.552;2023-04-25T04:50:06;101033.03;;;4.37;87.06
76297;BME280;65104;52.994;6.552;2023-04-25T04:52:34;101034.47;;;4.32;85.87
76297;BME280;65104;52.994;6.552;2023-04-25T04:54:59;101039.69;;;4.35;85.31
76297;BME280;65104;52.994;6.552;2023-04-25T04:57:25;101043.41;;;4.24;85.83
76297;BME280;65104;52.994;6.552;2023-04-25T04:59:51;101048.28;;;4.19;86.58
76297;BME280;65104;52.994;6.552;2023-04-25T05:02:16;101055.97;;;4.21;86.52
76297;BME280;65104;52.994;6.552;2023-04-25T05:04:41;101046.81;;;4.24;85.90
76297;BME280;65104;52.994;6.552;2023-04-25T05:07:07;101055.69;;;4.14;85.77
76297;BME280;65104;52.994;6.552;2023-04-25T05:09:32;101059.38;;;4.21;85.71
76297;BME280;65104;52.994;6.552;2023-04-25T05:11:58;101057.25;;;4.30;84.92
76297;BME280;65104;52.994;6.552;2023-04-25T05:14:23;101056.47;;;4.31;85.27
76297;BME280;65104;52.994;6.552;2023-04-25T05:16:48;101066.78;;;4.34;85.78
76297;BME280;65104;52.994;6.552;2023-04-25T05:19:14;101066.88;;;4.36;85.23
76297;BME280;65104;52.994;6.552;2023-04-25T05:21:39;101069.75;;;4.43;86.06
76297;BME280;65104;52.994;6.552;2023-04-25T05:24:05;101072.66;;;4.51;87.16
76297;BME280;65104;52.994;6.552;2023-04-25T05:26:30;101068.44;;;4.69;86.55
76297;BME280;65104;52.994;6.552;2023-04-25T05:28:59;101076.47;;;4.78;87.47
76297;BME280;65104;52.994;6.552;2023-04-25T05:31:25;101076.09;;;4.88;86.52
76297;BME280;65104;52.994;6.552;2023-04-25T05:33:50;101078.78;;;4.92;86.84
76297;BME280;65104;52.994;6.552;2023-04-25T05:36:16;101079.69;;;4.94;87.31
76297;BME280;65104;52.994;6.552;2023-04-25T05:38:41;101087.41;;;4.95;88.44
76297;BME280;65104;52.994;6.552;2023-04-25T05:41:07;101086.53;;;4.95;89.02
76297;BME280;65104;52.994;6.552;2023-04-25T05:43:32;101082.81;;;5.06;88.68
76297;BME280;65104;52.994;6.552;2023-04-25T05:45:58;101081.63;;;5.17;88.94
76297;BME280;65104;52.994;6.552;2023-04-25T05:48:23;101088.72;;;5.24;88.50
76297;BME280;65104;52.994;6.552;2023-04-25T05:50:49;101088.38;;;5.16;88.82
76297;BME280;65104;52.994;6.552;2023-04-25T05:53:14;101088.50;;;5.19;88.52
76297;BME280;65104;52.994;6.552;2023-04-25T05:55:40;101094.53;;;5.21;88.12
76297;BME280;65104;52.994;6.552;2023-04-25T05:58:06;101085.63;;;5.31;88.02
76297;BME280;65104;52.994;6.552;2023-04-25T06:00:32;101092.13;;;5.44;87.33
76297;BME280;65104;52.994;6.552;2023-04-25T06:02:57;101088.50;;;5.39;86.89
76297;BME280;65104;52.994;6.552;2023-04-25T06:05:23;101097.16;;;5.42;87.25
76297;BME280;65104;52.994;6.552;2023-04-25T06:07:48;101104.19;;;5.48;87.03
76297;BME280;65104;52.994;6.552;2023-04-25T06:10:13;101096.59;;;5.49;86.91
76297;BME280;65104;52.994;6.552;2023-04-25T06:12:40;101107.88;;;5.54;86.94
76297;BME280;65104;52.994;6.552;2023-04-25T06:15:06;101102.81;;;5.56;85.16
76297;BME280;65104;52.994;6.552;2023-04-25T06:17:32;101101.16;;;5.56;85.11
76297;BME280;65104;52.994;6.552;2023-04-25T06:19:57;101106.13;;;5.53;83.27
76297;BME280;65104;52.994;6.552;2023-04-25T06:22:23;101105.38;;;5.56;84.20
76297;BME280;65104;52.994;6.552;2023-04-25T06:24:48;101104.97;;;5.66;82.63
76297;BME280;65104;52.994;6.552;2023-04-25T06:27:13;101106.09;;;5.73;82.40
76297;BME280;65104;52.994;6.552;2023-04-25T06:29:39;101112.13;;;5.94;81.16
76297;BME280;65104;52.994;6.552;2023-04-25T06:32:04;101117.03;;;6.10;79.87
76297;BME280;65104;52.994;6.552;2023-04-25T06:34:30;101124.50;;;6.26;80.41
76297;BME280;65104;52.994;6.552;2023-04-25T06:36:55;101126.94;;;6.23;79.32
76297;BME280;65104;52.994;6.552;2023-04-25T06:39:21;101117.47;;;6.21;80.15
76297;BME280;65104;52.994;6.552;2023-04-25T06:41:48;101121.72;;;6.20;79.82
76297;BME280;65104;52.994;6.552;2023-04-25T06:44:14;101123.75;;;6.29;79.47
76297;BME280;65104;52.994;6.552;2023-04-25T06:46:40;101126.81;;;6.20;79.71
76297;BME280;65104;52.994;6.552;2023-04-25T06:49:05;101134.78;;;6.07;80.63
76297;BME280;65104;52.994;6.552;2023-04-25T06:51:31;101135.75;;;6.11;79.67
76297;BME280;65104;52.994;6.552;2023-04-25T06:53:56;101129.94;;;6.13;78.37
76297;BME280;65104;52.994;6.552;2023-04-25T06:56:22;101144.75;;;6.43;77.69
76297;BME280;65104;52.994;6.552;2023-04-25T06:58:48;101141.84;;;6.56;78.24
76297;BME280;65104;52.994;6.552;2023-04-25T07:01:13;101139.69;;;6.87;78.29
76297;BME280;65104;52.994;6.552;2023-04-25T07:03:39;101139.22;;;6.97;77.61
76297;BME280;65104;52.994;6.552;2023-04-25T07:06:05;101140.00;;;7.19;76.22
76297;BME280;65104;52.994;6.552;2023-04-25T07:08:30;101135.31;;;7.07;75.05
76297;BME280;65104;52.994;6.552;2023-04-25T07:10:55;101141.22;;;7.28;74.94
76297;BME280;65104;52.994;6.552;2023-04-25T07:13:21;101148.72;;;7.24;71.46
76297;BME280;65104;52.994;6.552;2023-04-25T07:15:46;101143.56;;;7.00;71.45
76297;BME280;65104;52.994;6.552;2023-04-25T07:18:13;101157.78;;;6.93;72.59
76297;BME280;65104;52.994;6.552;2023-04-25T07:20:38;101160.50;;;6.75;71.19
76297;BME280;65104;52.994;6.552;2023-04-25T07:23:04;101156.91;;;6.93;71.90
76297;BME280;65104;52.994;6.552;2023-04-25T07:25:29;101166.91;;;6.87;70.82
76297;BME280;65104;52.994;6.552;2023-04-25T07:27:55;101165.22;;;6.87;71.92
76297;BME280;65104;52.994;6.552;2023-04-25T07:30:21;101165.66;;;6.77;71.82
76297;BME280;65104;52.994;6.552;2023-04-25T07:32:47;101162.47;;;6.83;70.42
76297;BME280;65104;52.994;6.552;2023-04-25T07:35:12;101164.41;;;6.88;71.51
76297;BME280;65104;52.994;6.552;2023-04-25T07:37:37;101167.84;;;6.89;70.35
76297;BME280;65104;52.994;6.552;2023-04-25T07:40:03;101167.25;;;6.96;72.01
76297;BME280;65104;52.994;6.552;2023-04-25T07:42:29;101180.94;;;6.98;71.28
76297;BME280;65104;52.994;6.552;2023-04-25T07:44:55;101182.16;;;7.30;72.89
76297;BME280;65104;52.994;6.552;2023-04-25T07:47:20;101186.03;;;7.42;69.51
76297;BME280;65104;52.994;6.552;2023-04-25T07:49:46;101176.75;;;7.68;70.90
76297;BME280;65104;52.994;6.552;2023-04-25T07:52:12;101180.06;;;7.89;70.38
76297;BME280;65104;52.994;6.552;2023-04-25T07:54:37;101192.63;;;7.83;71.90
76297;BME280;65104;52.994;6.552;2023-04-25T07:57:03;101191.91;;;7.64;70.61
76297;BME280;65104;52.994;6.552;2023-04-25T07:59:28;101192.19;;;7.47;70.84
76297;BME280;65104;52.994;6.552;2023-04-25T08:01:53;101197.56;;;8.03;72.81
76297;BME280;65104;52.994;6.552;2023-04-25T08:04:19;101219.06;;;7.38;74.65
76297;BME280;65104;52.994;6.552;2023-04-25T08:06:44;101216.06;;;6.83;77.44
76297;BME280;65104;52.994;6.552;2023-04-25T08:09:10;101221.06;;;6.80;78.62
76297;BME280;65104;52.994;6.552;2023-04-25T08:11:36;101229.50;;;6.99;80.93
76297;BME280;65104;52.994;6.552;2023-04-25T08:14:02;101231.59;;;7.09;79.05
76297;BME280;65104;52.994;6.552;2023-04-25T08:16:27;101232.88;;;7.21;77.80
76297;BME280;65104;52.994;6.552;2023-04-25T08:18:53;101232.59;;;7.13;68.37
76297;BME280;65104;52.994;6.552;2023-04-25T08:21:18;101223.06;;;7.09;67.60
76297;BME280;65104;52.994;6.552;2023-04-25T08:23:44;101235.66;;;7.04;68.88
76297;BME280;65104;52.994;6.552;2023-04-25T08:26:09;101233.06;;;7.03;68.74
76297;BME280;65104;52.994;6.552;2023-04-25T08:28:34;101233.34;;;7.10;68.64
76297;BME280;65104;52.994;6.552;2023-04-25T08:31:00;101236.03;;;7.13;69.38
76297;BME280;65104;52.994;6.552;2023-04-25T08:33:25;101245.88;;;7.27;69.72
76297;BME280;65104;52.994;6.552;2023-04-25T08:35:51;101247.97;;;7.37;67.29
76297;BME280;65104;52.994;6.552;2023-04-25T08:38:17;101246.34;;;7.61;68.43
76297;BME280;65104;52.994;6.552;2023-04-25T08:40:43;101239.84;;;7.69;66.89
76297;BME280;65104;52.994;6.552;2023-04-25T08:43:09;101254.13;;;7.86;65.80
76297;BME280;65104;52.994;6.552;2023-04-25T08:45:42;101251.78;;;8.40;66.57
76297;BME280;65104;52.994;6.552;2023-04-25T08:48:11;101278.00;;;8.58;65.10
76297;BME280;65104;52.994;6.552;2023-04-25T08:50:40;101287.53;;;7.69;69.31
76297;BME280;65104;52.994;6.552;2023-04-25T08:53:09;101285.94;;;6.85;73.03
76297;BME280;65104;52.994;6.552;2023-04-25T08:55:37;101298.97;;;6.51;77.49
76297;BME280;65104;52.994;6.552;2023-04-25T08:58:06;101295.34;;;6.26;78.30
76297;BME280;65104;52.994;6.552;2023-04-25T09:00:32;101308.16;;;6.47;79.21
76297;BME280;65104;52.994;6.552;2023-04-25T09:02:58;101309.16;;;7.34;77.39
76297;BME280;65104;52.994;6.552;2023-04-25T09:05:24;101314.13;;;7.08;77.42
76297;BME280;65104;52.994;6.552;2023-04-25T09:07:50;101338.03;;;6.50;81.75
76297;BME280;65104;52.994;6.552;2023-04-25T09:10:15;101327.13;;;6.14;82.57
76297;BME280;65104;52.994;6.552;2023-04-25T09:12:41;101302.25;;;6.08;82.05
76297;BME280;65104;52.994;6.552;2023-04-25T09:15:09;101299.00;;;6.31;76.30
76297;BME280;65104;52.994;6.552;2023-04-25T09:17:35;101301.34;;;6.67;75.51
76297;BME280;65104;52.994;6.552;2023-04-25T09:20:09;101295.28;;;7.05;75.84
76297;BME280;65104;52.994;6.552;2023-04-25T09:22:36;101300.00;;;7.39;77.98
76297;BME280;65104;52.994;6.552;2023-04-25T09:25:12;101303.56;;;7.87;74.90
76297;BME280;65104;52.994;6.552;2023-04-25T09:27:52;101305.06;;;8.06;75.29
76297;BME280;65104;52.994;6.552;2023-04-25T09:30:18;101298.13;;;8.25;73.21
76297;BME280;65104;52.994;6.552;2023-04-25T09:32:44;101309.84;;;8.67;69.12
76297;BME280;65104;52.994;6.552;2023-04-25T09:35:10;101303.94;;;8.94;68.84
76297;BME280;65104;52.994;6.552;2023-04-25T09:37:36;101303.78;;;9.44;67.81
76297;BME280;65104;52.994;6.552;2023-04-25T09:40:05;101301.75;;;9.33;65.86
76297;BME280;65104;52.994;6.552;2023-04-25T09:42:31;101298.09;;;9.82;65.37
76297;BME280;65104;52.994;6.552;2023-04-25T09:45:00;101297.53;;;10.22;64.20
76297;BME280;65104;52.994;6.552;2023-04-25T09:47:27;101309.16;;;10.09;63.25
76297;BME280;65104;52.994;6.552;2023-04-25T09:49:54;101303.06;;;10.06;61.80
76297;BME280;65104;52.994;6.552;2023-04-25T09:52:22;101312.84;;;10.83;60.05
76297;BME280;65104;52.994;6.552;2023-04-25T09:54:48;101338.03;;;9.74;62.04
76297;BME280;65104;52.994;6.552;2023-04-25T09:59:44;101387.78;;;6.40;82.38
76297;BME280;65104;52.994;6.552;2023-04-25T10:02:11;101381.22;;;5.71;86.95
76297;BME280;65104;52.994;6.552;2023-04-25T10:04:37;101360.09;;;5.56;87.98
76297;BME280;65104;52.994;6.552;2023-04-25T10:07:05;101356.97;;;5.97;89.04
76297;BME280;65104;52.994;6.552;2023-04-25T10:09:32;101356.03;;;6.14;88.53
76297;BME280;65104;52.994;6.552;2023-04-25T10:11:59;101358.31;;;6.47;88.34
76297;BME280;65104;52.994;6.552;2023-04-25T10:14:25;101355.16;;;6.92;87.05
76297;BME280;65104;52.994;6.552;2023-04-25T10:16:51;101346.72;;;7.79;85.11
76297;BME280;65104;52.994;6.552;2023-04-25T10:19:19;101346.47;;;8.18;83.45
76297;BME280;65104;52.994;6.552;2023-04-25T10:22:07;101351.56;;;8.40;83.44
76297;BME280;65104;52.994;6.552;2023-04-25T10:24:35;101345.63;;;8.90;79.96
76297;BME280;65104;52.994;6.552;2023-04-25T10:27:01;101339.09;;;9.81;81.89
76297;BME280;65104;52.994;6.552;2023-04-25T10:29:27;101341.06;;;10.18;75.12
76297;BME280;65104;52.994;6.552;2023-04-25T10:31:53;101327.69;;;9.99;72.32
76297;BME280;65104;52.994;6.552;2023-04-25T10:34:19;101329.28;;;10.57;68.36
76297;BME280;65104;52.994;6.552;2023-04-25T10:36:52;101325.91;;;11.25;71.02
76297;BME280;65104;52.994;6.552;2023-04-25T10:39:27;101325.63;;;11.15;63.24
76297;BME280;65104;52.994;6.552;2023-04-25T10:41:57;101339.19;;;10.13;65.14
76297;BME280;65104;52.994;6.552;2023-04-25T10:44:26;101351.47;;;9.67;64.27
76297;BME280;65104;52.994;6.552;2023-04-25T10:46:52;101346.63;;;9.76;61.05
76297;BME280;65104;52.994;6.552;2023-04-25T10:52:16;101355.84;;;9.69;61.03
76297;BME280;65104;52.994;6.552;2023-04-25T10:54:45;101368.22;;;9.02;64.05
76297;BME280;65104;52.994;6.552;2023-04-25T10:57:39;101364.75;;;8.28;67.73
76297;BME280;65104;52.994;6.552;2023-04-25T11:00:18;101371.81;;;8.34;69.54
76297;BME280;65104;52.994;6.552;2023-04-25T11:02:51;101366.53;;;8.07;68.13
76297;BME280;65104;52.994;6.552;2023-04-25T11:05:30;101377.84;;;9.09;66.00
76297;BME280;65104;52.994;6.552;2023-04-25T11:07:57;101382.34;;;8.91;65.20
76297;BME280;65104;52.994;6.552;2023-04-25T11:10:27;101371.94;;;9.92;66.89
76297;BME280;65104;52.994;6.552;2023-04-25T11:12:53;101365.00;;;10.79;63.62
76297;BME280;65104;52.994;6.552;2023-04-25T11:15:18;101372.63;;;10.45;61.09
76297;BME280;65104;52.994;6.552;2023-04-25T11:17:44;101424.03;;;9.11;65.45
76297;BME280;65104;52.994;6.552;2023-04-25T11:20:12;101407.19;;;8.23;67.74
76297;BME280;65104;52.994;6.552;2023-04-25T11:22:39;101417.13;;;7.71;70.31
76297;BME280;65104;52.994;6.552;2023-04-25T11:25:09;101427.53;;;7.33;75.75
76297;BME280;65104;52.994;6.552;2023-04-25T11:28:00;101425.50;;;7.26;75.97
76297;BME280;65104;52.994;6.552;2023-04-25T11:30:26;101421.94;;;7.43;73.67
76297;BME280;65104;52.994;6.552;2023-04-25T11:32:53;101409.50;;;7.94;73.10
76297;BME280;65104;52.994;6.552;2023-04-25T11:35:19;101406.53;;;8.99;74.89
76297;BME280;65104;52.994;6.552;2023-04-25T11:37:48;101412.34;;;9.99;69.51
76297;BME280;65104;52.994;6.552;2023-04-25T11:40:14;101396.53;;;10.42;68.36
76297;BME280;65104;52.994;6.552;2023-04-25T11:42:43;101401.19;;;10.56;64.13
76297;BME280;65104;52.994;6.552;2023-04-25T11:45:09;101394.94;;;11.12;61.90
76297;BME280;65104;52.994;6.552;2023-04-25T11:47:34;101400.19;;;11.15;61.64
76297;BME280;65104;52.994;6.552;2023-04-25T11:50:05;101388.91;;;12.19;58.09
76297;BME280;65104;52.994;6.552;2023-04-25T11:52:41;101394.69;;;11.72;63.32
76297;BME280;65104;52.994;6.552;2023-04-25T11:55:08;101401.41;;;10.65;63.87
76297;BME280;65104;52.994;6.552;2023-04-25T11:57:34;101412.41;;;10.01;67.91
76297;BME280;65104;52.994;6.552;2023-04-25T12:00:14;101414.72;;;9.39;65.92
76297;BME280;65104;52.994;6.552;2023-04-25T12:02:41;101429.03;;;8.60;64.04
76297;BME280;65104;52.994;6.552;2023-04-25T12:05:08;101437.81;;;8.43;64.20
76297;BME280;65104;52.994;6.552;2023-04-25T12:07:34;101435.78;;;8.34;63.54
76297;BME280;65104;52.994;6.552;2023-04-25T12:10:07;101433.56;;;9.41;62.62
76297;BME280;65104;52.994;6.552;2023-04-25T12:12:36;101419.63;;;10.72;58.48
76297;BME280;65104;52.994;6.552;2023-04-25T12:15:15;101418.44;;;11.25;54.99
76297;BME280;65104;52.994;6.552;2023-04-25T12:17:44;101416.97;;;10.69;56.43
76297;BME280;65104;52.994;6.552;2023-04-25T12:20:12;101431.53;;;9.84;54.95
76297;BME280;65104;52.994;6.552;2023-04-25T12:22:41;101425.56;;;9.58;55.26
76297;BME280;65104;52.994;6.552;2023-04-25T12:27:53;101441.59;;;8.76;60.78
76297;BME280;65104;52.994;6.552;2023-04-25T12:30:19;101450.44;;;8.38;59.33
76297;BME280;65104;52.994;6.552;2023-04-25T12:32:44;101454.38;;;8.30;59.33
76297;BME280;65104;52.994;6.552;2023-04-25T12:35:09;101448.56;;;8.56;59.31
76297;BME280;65104;52.994;6.552;2023-04-25T12:37:35;101445.47;;;9.14;60.60
76297;BME280;65104;52.994;6.552;2023-04-25T12:40:01;101447.53;;;9.24;57.45
76297;BME280;65104;52.994;6.552;2023-04-25T12:42:26;101461.03;;;9.71;57.40
76297;BME280;65104;52.994;6.552;2023-04-25T12:44:51;101443.03;;;10.53;55.20
76297;BME280;65104;52.994;6.552;2023-04-25T12:47:17;101437.19;;;10.88;55.65
76297;BME280;65104;52.994;6.552;2023-04-25T12:49:42;101438.59;;;11.43;55.05
76297;BME280;65104;52.994;6.552;2023-04-25T12:52:08;101434.91;;;11.01;54.61
76297;BME280;65104;52.994;6.552;2023-04-25T12:54:33;101440.47;;;11.16;57.21
76297;BME280;65104;52.994;6.552;2023-04-25T12:56:59;101445.50;;;11.44;56.07
76297;BME280;65104;52.994;6.552;2023-04-25T12:59:24;101437.94;;;11.17;55.96
76297;BME280;65104;52.994;6.552;2023-04-25T13:01:50;101432.53;;;11.41;55.59
76297;BME280;65104;52.994;6.552;2023-04-25T13:04:15;101437.31;;;11.26;56.00